Time;durP1;ratioP1;P1;durP2;ratioP2;P2;SDS_P1;SDS_P2;PMS_P1;PMS_P2;Temp;Humidity;BMP_temperature;BMP_pressure;BME280_temperature;BME280_humidity;BME280_pressure;Samples;Min_cycle;Max_cycle;Signal;HPM_P1;HPM_P2
2021/08/09 00:00:40;;;;;;;3.13;1.70;;;;;;;;;;6120329;23;20213;-90
2021/08/09 00:03:45;;;;;;;6.07;1.73;;;;;;;;;;6118811;23;20182;-90
2021/08/09 00:06:51;;;;;;;6.13;2.00;;;;;;;;;;6121639;23;20178;-90
2021/08/09 00:09:56;;;;;;;4.80;1.90;;;;;;;;;;6120052;23;20237;-88
2021/08/09 00:13:03;;;;;;;4.28;1.80;;;;;;;;;;6118741;23;20217;-90
2021/08/09 00:16:08;;;;;;;4.38;1.55;;;;;;;;;;6118905;23;20196;-90
2021/08/09 00:19:13;;;;;;;5.13;1.83;;;;;;;;;;6119362;23;20162;-91
2021/08/09 00:22:18;;;;;;;4.47;2.30;;;;;;;;;;6118992;23;20245;-89
2021/08/09 00:25:23;;;;;;;3.40;2.05;;;;;;;;;;6117872;23;20240;-90
2021/08/09 00:28:29;;;;;;;5.00;2.20;;;;;;;;;;6116949;23;20188;-90
2021/08/09 00:31:33;;;;;;;4.10;2.00;;;;;;;;;;6118260;23;20173;-88
2021/08/09 00:34:38;;;;;;;5.18;2.20;;;;;;;;;;6117482;23;20266;-89
2021/08/09 00:37:44;;;;;;;3.78;2.03;;;;;;;;;;6117103;23;20244;-90
2021/08/09 00:40:50;;;;;;;5.47;2.05;;;;;;;;;;6118844;23;20156;-90
2021/08/09 00:43:57;;;;;;;5.93;2.33;;;;;;;;;;6118665;23;20165;-90
2021/08/09 00:47:03;;;;;;;10.35;2.33;;;;;;;;;;6119969;23;20165;-89
2021/08/09 00:50:09;;;;;;;6.15;2.00;;;;;;;;;;6120136;23;20173;-88
2021/08/09 00:53:14;;;;;;;7.20;2.45;;;;;;;;;;6118874;23;20233;-89
2021/08/09 00:56:19;;;;;;;5.20;2.30;;;;;;;;;;6119946;23;20176;-88
2021/08/09 00:59:26;;;;;;;8.82;2.60;;;;;;;;;;6119893;23;20173;-90
2021/08/09 01:02:31;;;;;;;6.63;2.38;;;;;;;;;;6120016;23;20186;-89
2021/08/09 01:05:39;;;;;;;5.05;2.28;;;;;;;;;;6120168;23;20173;-90
2021/08/09 01:08:51;;;;;;;6.70;2.30;;;;;;;;;;6119861;23;20165;-89
2021/08/09 01:11:58;;;;;;;7.90;2.42;;;;;;;;;;6117918;23;20161;-90
2021/08/09 01:15:10;;;;;;;6.25;2.97;;;;;;;;;;6118637;23;20213;-90
2021/08/09 01:18:23;;;;;;;4.30;2.58;;;;;;;;;;6118747;23;20168;-91
2021/08/09 01:21:32;;;;;;;7.57;2.42;;;;;;;;;;6119547;23;20223;-89
2021/08/09 01:24:41;;;;;;;5.22;2.50;;;;;;;;;;6118319;23;20620;-88
2021/08/09 01:27:50;;;;;;;7.38;2.92;;;;;;;;;;6119697;23;20174;-89
2021/08/09 01:30:57;;;;;;;4.13;2.50;;;;;;;;;;6119106;23;20168;-90
2021/08/09 01:34:04;;;;;;;8.13;2.40;;;;;;;;;;6120075;23;20250;-89
2021/08/09 01:37:10;;;;;;;6.90;2.05;;;;;;;;;;6119542;23;20196;-88
2021/08/09 01:40:16;;;;;;;5.30;2.15;;;;;;;;;;6118864;23;20149;-89
2021/08/09 01:43:24;;;;;;;10.07;2.45;;;;;;;;;;6119653;23;20185;-89
2021/08/09 01:46:30;;;;;;;4.47;2.80;;;;;;;;;;6120727;23;20172;-90
2021/08/09 01:49:36;;;;;;;5.05;3.50;;;;;;;;;;6119140;23;20290;-88
2021/08/09 01:52:43;;;;;;;7.20;3.20;;;;;;;;;;6118155;23;20161;-90
2021/08/09 01:55:51;;;;;;;5.78;3.03;;;;;;;;;;6117303;23;20158;-88
2021/08/09 01:58:59;;;;;;;6.47;3.42;;;;;;;;;;6119186;23;20632;-89
2021/08/09 02:02:06;;;;;;;4.38;2.20;;;;;;;;;;6119971;23;20165;-89
2021/08/09 02:05:12;;;;;;;4.63;2.65;;;;;;;;;;6120852;23;20220;-90
2021/08/09 02:08:19;;;;;;;4.03;2.00;;;;;;;;;;6120529;23;20188;-90
2021/08/09 02:11:26;;;;;;;4.32;1.75;;;;;;;;;;6119871;23;20161;-89
2021/08/09 02:14:37;;;;;;;4.13;1.90;;;;;;;;;;6123048;23;20200;-90
2021/08/09 02:17:50;;;;;;;5.25;1.80;;;;;;;;;;6123540;23;20172;-89
2021/08/09 02:20:58;;;;;;;4.00;2.08;;;;;;;;;;6122230;23;20241;-90
2021/08/09 02:24:05;;;;;;;3.05;1.95;;;;;;;;;;6123741;23;20172;-89
2021/08/09 02:27:13;;;;;;;2.15;1.75;;;;;;;;;;6122880;23;20200;-88
2021/08/09 02:30:22;;;;;;;6.43;1.88;;;;;;;;;;6122903;23;20177;-90
2021/08/09 02:33:29;;;;;;;7.20;1.70;;;;;;;;;;6123016;23;20185;-89
2021/08/09 02:36:35;;;;;;;2.63;1.60;;;;;;;;;;6122436;23;20210;-91
2021/08/09 02:39:41;;;;;;;2.08;1.67;;;;;;;;;;6123470;23;20258;-90
2021/08/09 02:42:48;;;;;;;6.07;1.80;;;;;;;;;;6122214;23;20168;-91
2021/08/09 02:45:55;;;;;;;8.10;2.15;;;;;;;;;;6121429;23;20221;-91
2021/08/09 02:49:00;;;;;;;5.47;2.50;;;;;;;;;;6121598;23;20176;-91
2021/08/09 02:52:06;;;;;;;4.05;2.60;;;;;;;;;;6122591;23;20447;-88
2021/08/09 02:55:14;;;;;;;5.63;2.50;;;;;;;;;;6121671;23;20165;-90
2021/08/09 02:58:20;;;;;;;6.07;2.72;;;;;;;;;;6119883;23;20173;-90
2021/08/09 03:01:29;;;;;;;6.93;2.92;;;;;;;;;;6121624;23;20157;-90
2021/08/09 03:04:36;;;;;;;7.13;3.42;;;;;;;;;;6121753;23;20185;-90
2021/08/09 03:07:43;;;;;;;7.25;2.70;;;;;;;;;;6121767;23;20209;-91
2021/08/09 03:10:49;;;;;;;5.05;2.47;;;;;;;;;;6120156;23;20176;-91
2021/08/09 03:13:55;;;;;;;4.47;2.67;;;;;;;;;;6121485;23;20189;-90
2021/08/09 03:17:04;;;;;;;3.67;2.30;;;;;;;;;;6121887;23;20205;-91
2021/08/09 03:20:10;;;;;;;5.57;2.13;;;;;;;;;;6120578;23;20166;-90
2021/08/09 03:23:19;;;;;;;4.45;2.38;;;;;;;;;;6120889;23;20169;-92
2021/08/09 03:26:27;;;;;;;4.38;2.58;;;;;;;;;;6119648;23;20249;-90
2021/08/09 03:29:32;;;;;;;3.80;2.67;;;;;;;;;;6119336;23;20164;-90
2021/08/09 03:32:39;;;;;;;9.57;3.25;;;;;;;;;;6121457;23;20239;-89
2021/08/09 03:35:44;;;;;;;5.38;3.05;;;;;;;;;;6121559;23;20617;-90
2021/08/09 03:38:49;;;;;;;2.88;2.28;;;;;;;;;;6120701;23;20256;-90
2021/08/09 03:41:54;;;;;;;3.95;2.72;;;;;;;;;;6121375;23;20176;-90
2021/08/09 03:45:01;;;;;;;2.80;2.10;;;;;;;;;;6121016;23;20178;-89
2021/08/09 03:48:10;;;;;;;4.80;2.28;;;;;;;;;;6120579;23;20200;-90
2021/08/09 03:51:16;;;;;;;4.05;1.90;;;;;;;;;;6120418;23;20177;-90
2021/08/09 03:54:20;;;;;;;3.67;2.30;;;;;;;;;;6119021;23;20507;-90
2021/08/09 03:57:27;;;;;;;4.63;2.65;;;;;;;;;;6122118;23;20165;-91
2021/08/09 04:00:33;;;;;;;3.40;2.75;;;;;;;;;;6120157;23;20184;-90
2021/08/09 04:03:40;;;;;;;4.85;2.88;;;;;;;;;;6121238;23;20176;-90
2021/08/09 04:06:47;;;;;;;3.53;2.58;;;;;;;;;;6121936;23;20613;-87
2021/08/09 04:09:52;;;;;;;7.50;3.45;;;;;;;;;;6121374;23;20192;-90
2021/08/09 04:12:57;;;;;;;4.43;3.00;;;;;;;;;;6121014;23;20169;-90
2021/08/09 04:16:04;;;;;;;4.95;3.03;;;;;;;;;;6121913;23;20169;-88
2021/08/09 04:19:11;;;;;;;5.68;2.97;;;;;;;;;;6121679;23;20176;-89
2021/08/09 04:22:18;;;;;;;5.40;2.85;;;;;;;;;;6120984;23;20185;-88
2021/08/09 04:25:25;;;;;;;7.25;3.10;;;;;;;;;;6121489;23;20181;-90
2021/08/09 04:28:31;;;;;;;8.68;3.47;;;;;;;;;;6123030;23;20657;-90
2021/08/09 04:31:41;;;;;;;11.15;3.22;;;;;;;;;;6120782;23;20177;-90
2021/08/09 04:34:53;;;;;;;5.28;3.28;;;;;;;;;;6118955;23;20173;-90
2021/08/09 04:37:58;;;;;;;6.15;3.40;;;;;;;;;;6120979;23;20225;-89
2021/08/09 04:41:07;;;;;;;8.85;3.13;;;;;;;;;;6120569;23;20605;-88
2021/08/09 04:44:14;;;;;;;7.13;3.53;;;;;;;;;;6120800;23;20153;-89
2021/08/09 04:47:20;;;;;;;5.38;2.83;;;;;;;;;;6119173;23;20197;-88
2021/08/09 04:50:27;;;;;;;3.88;2.90;;;;;;;;;;6120142;23;20172;-90
2021/08/09 04:53:32;;;;;;;5.18;2.70;;;;;;;;;;6119060;23;20253;-88
2021/08/09 04:56:37;;;;;;;6.97;3.20;;;;;;;;;;6119175;23;20169;-90
2021/08/09 04:59:44;;;;;;;5.05;3.08;;;;;;;;;;6120879;23;20169;-88
2021/08/09 05:02:49;;;;;;;3.72;2.80;;;;;;;;;;6122175;23;20359;-89
2021/08/09 05:05:56;;;;;;;6.72;2.90;;;;;;;;;;6120584;23;20217;-90
2021/08/09 05:09:01;;;;;;;5.25;2.97;;;;;;;;;;6120937;23;20193;-92
2021/08/09 05:12:07;;;;;;;5.22;2.72;;;;;;;;;;6121178;23;20649;-90
2021/08/09 05:15:16;;;;;;;5.35;2.72;;;;;;;;;;6122261;23;20189;-91
2021/08/09 05:18:23;;;;;;;5.68;3.10;;;;;;;;;;6119331;23;20165;-91
2021/08/09 05:21:30;;;;;;;4.72;2.50;;;;;;;;;;6121250;23;20177;-92
2021/08/09 05:24:35;;;;;;;4.03;2.72;;;;;;;;;;6120560;23;20205;-89
2021/08/09 05:27:42;;;;;;;7.90;2.97;;;;;;;;;;6103832;23;20192;-90
2021/08/09 05:30:48;;;;;;;3.83;2.50;;;;;;;;;;6122622;23;20602;-90
2021/08/09 05:33:54;;;;;;;2.80;1.88;;;;;;;;;;6123080;23;20228;-89
2021/08/09 05:40:35;;;;;;;3.97;2.42;;;;;;;;;;6123868;23;20181;-88
2021/08/09 05:43:51;;;;;;;4.22;2.38;;;;;;;;;;6122325;23;20249;-89
2021/08/09 05:46:59;;;;;;;6.65;3.08;;;;;;;;;;6124780;23;20169;-91
2021/08/09 05:50:05;;;;;;;4.60;3.35;;;;;;;;;;6123264;23;20293;-90
2021/08/09 05:53:15;;;;;;;4.65;3.47;;;;;;;;;;6122613;23;20177;-91
2021/08/09 05:56:21;;;;;;;6.85;3.13;;;;;;;;;;6120294;23;20169;-90
2021/08/09 05:59:35;;;;;;;6.47;2.88;;;;;;;;;;6120513;23;20158;-89
2021/08/09 06:02:45;;;;;;;4.32;2.78;;;;;;;;;;6124036;23;20501;-89
2021/08/09 06:06:08;;;;;;;4.03;3.00;;;;;;;;;;6124423;23;20170;-89
2021/08/09 06:09:22;;;;;;;6.18;2.60;;;;;;;;;;6125647;23;20177;-89
2021/08/09 06:12:28;;;;;;;3.63;2.50;;;;;;;;;;6124185;23;20214;-88
2021/08/09 06:15:34;;;;;;;4.25;2.88;;;;;;;;;;6107543;23;20568;-90
2021/08/09 06:18:40;;;;;;;5.95;2.75;;;;;;;;;;6121159;23;20173;-90
2021/08/09 06:21:47;;;;;;;3.28;2.30;;;;;;;;;;6119541;23;20277;-89
2021/08/09 06:24:54;;;;;;;4.22;1.88;;;;;;;;;;6119826;23;20237;-91
2021/08/09 06:28:00;;;;;;;3.17;1.50;;;;;;;;;;6120322;23;20193;-90
2021/08/09 06:31:05;;;;;;;3.05;2.33;;;;;;;;;;6121106;23;20169;-90
2021/08/09 06:34:11;;;;;;;1.83;1.30;;;;;;;;;;6125230;23;20231;-91
2021/08/09 06:37:17;;;;;;;3.10;1.60;;;;;;;;;;6121104;23;20230;-91
2021/08/09 06:40:24;;;;;;;1.63;1.30;;;;;;;;;;6123657;23;20149;-90
2021/08/09 06:43:31;;;;;;;3.13;1.60;;;;;;;;;;6122503;23;20620;-89
2021/08/09 06:46:38;;;;;;;2.22;1.30;;;;;;;;;;6125115;23;20218;-91
2021/08/09 06:49:43;;;;;;;1.92;1.35;;;;;;;;;;6125704;23;20193;-90
2021/08/09 06:52:57;;;;;;;5.20;1.60;;;;;;;;;;6126375;23;20172;-89
2021/08/09 06:56:04;;;;;;;11.30;1.75;;;;;;;;;;6125804;23;20161;-87
2021/08/09 06:59:12;;;;;;;2.80;1.50;;;;;;;;;;6142715;23;20221;-90
2021/08/09 07:02:19;;;;;;;3.72;1.20;;;;;;;;;;6108799;23;20207;-88
2021/08/09 07:05:25;;;;;;;4.07;1.30;;;;;;;;;;6124787;23;20217;-90
2021/08/09 07:08:30;;;;;;;3.17;1.35;;;;;;;;;;6122603;23;20189;-90
2021/08/09 07:11:38;;;;;;;4.93;1.20;;;;;;;;;;6123478;23;20162;-89
2021/08/09 07:14:44;;;;;;;3.72;1.55;;;;;;;;;;6121669;23;20209;-88
2021/08/09 07:17:51;;;;;;;2.60;1.20;;;;;;;;;;6123673;23;20164;-90
2021/08/09 20:23:11;;;;;;;4.72;2.05;;;;;;;;;;6051932;23;20180;-93
2021/08/09 20:26:16;;;;;;;5.13;2.05;;;;;;;;;;6050365;23;20171;-92
2021/08/09 20:29:21;;;;;;;3.38;2.08;;;;;;;;;;6051889;23;20735;-91
2021/08/09 20:32:26;;;;;;;5.20;2.50;;;;;;;;;;6049312;23;20175;-91
2021/08/09 20:35:31;;;;;;;4.97;2.00;;;;;;;;;;6032860;23;20195;-90
2021/08/09 20:38:37;;;;;;;7.68;2.50;;;;;;;;;;6049983;23;20235;-91
2021/08/09 20:41:42;;;;;;;7.00;2.67;;;;;;;;;;6049658;23;20187;-91
2021/08/09 20:44:47;;;;;;;12.50;3.10;;;;;;;;;;6049509;23;20183;-91
2021/08/09 20:47:52;;;;;;;4.72;2.45;;;;;;;;;;6049946;23;20225;-90
2021/08/09 20:50:58;;;;;;;6.07;2.33;;;;;;;;;;6050828;23;20174;-91
2021/08/09 20:54:05;;;;;;;6.75;2.10;;;;;;;;;;6032675;23;20171;-89
2021/08/09 20:57:09;;;;;;;7.60;2.38;;;;;;;;;;6055642;23;20219;-89
2021/08/09 21:00:15;;;;;;;7.07;1.90;;;;;;;;;;6055364;23;20199;-90
2021/08/09 21:03:20;;;;;;;4.50;2.25;;;;;;;;;;6050139;23;20223;-90
2021/08/09 21:06:25;;;;;;;3.63;2.00;;;;;;;;;;6035931;23;20171;-91
2021/08/09 21:09:32;;;;;;;5.68;1.92;;;;;;;;;;6049627;23;20640;-91
2021/08/09 21:12:40;;;;;;;6.72;2.10;;;;;;;;;;6051430;23;20183;-92
2021/08/09 21:15:45;;;;;;;5.07;1.90;;;;;;;;;;6036259;23;20167;-90
2021/08/09 21:18:50;;;;;;;5.85;2.30;;;;;;;;;;6051614;23;20194;-91
2021/08/09 21:21:55;;;;;;;5.45;1.90;;;;;;;;;;6048950;23;20206;-91
2021/08/09 21:25:01;;;;;;;4.80;2.35;;;;;;;;;;6031403;23;20198;-90
2021/08/09 21:28:06;;;;;;;4.97;2.17;;;;;;;;;;6047618;23;20151;-90
2021/08/09 21:31:11;;;;;;;5.13;2.22;;;;;;;;;;6048505;23;20252;-91
2021/08/09 21:34:16;;;;;;;2.65;1.92;;;;;;;;;;6048153;23;20166;-91
2021/08/09 21:37:21;;;;;;;8.93;2.10;;;;;;;;;;6049082;23;20221;-90
2021/08/09 21:40:29;;;;;;;5.10;1.92;;;;;;;;;;6049510;23;20250;-91
2021/08/09 21:43:34;;;;;;;4.32;2.00;;;;;;;;;;6049294;23;20620;-91
2021/08/09 21:46:39;;;;;;;6.53;1.85;;;;;;;;;;6050391;23;20555;-92
2021/08/09 21:49:44;;;;;;;7.32;2.17;;;;;;;;;;6049551;23;20174;-90
2021/08/09 21:52:49;;;;;;;7.85;2.38;;;;;;;;;;6048382;23;20187;-91
2021/08/09 21:55:57;;;;;;;19.80;5.78;;;;;;;;;;6050013;23;20175;-91
2021/08/09 21:59:01;;;;;;;5.97;2.67;;;;;;;;;;6047717;23;20270;-91
2021/08/09 22:02:12;;;;;;;7.13;2.15;;;;;;;;;;6049223;23;20170;-91
2021/08/09 22:05:17;;;;;;;4.10;2.38;;;;;;;;;;6049797;23;20259;-92
2021/08/09 22:08:22;;;;;;;5.63;2.08;;;;;;;;;;6050468;23;20620;-92
2021/08/09 22:11:29;;;;;;;12.05;2.47;;;;;;;;;;6050526;23;20196;-91
2021/08/09 22:14:34;;;;;;;3.83;2.30;;;;;;;;;;6047831;23;20194;-91
2021/08/09 22:17:39;;;;;;;3.47;2.03;;;;;;;;;;6049402;23;20179;-90
2021/08/09 22:20:45;;;;;;;4.72;1.90;;;;;;;;;;6056716;23;20247;-91
2021/08/09 22:23:50;;;;;;;5.43;2.50;;;;;;;;;;6072054;23;20171;-91
2021/08/09 22:26:56;;;;;;;6.93;2.35;;;;;;;;;;6065692;23;20220;-91
2021/08/09 22:30:02;;;;;;;4.00;2.20;;;;;;;;;;6066732;23;20175;-92
2021/08/09 22:33:07;;;;;;;7.03;2.30;;;;;;;;;;6049907;23;20174;-90
2021/08/09 22:36:13;;;;;;;7.43;2.42;;;;;;;;;;6066022;23;20223;-92
2021/08/09 22:39:18;;;;;;;8.00;2.17;;;;;;;;;;6066057;23;20195;-90
2021/08/09 22:42:24;;;;;;;4.50;2.05;;;;;;;;;;6067863;23;20595;-91
2021/08/09 22:45:30;;;;;;;6.30;2.25;;;;;;;;;;6068440;23;20283;-91
2021/08/09 22:48:37;;;;;;;3.47;2.20;;;;;;;;;;6067434;23;20179;-89
2021/08/09 22:51:42;;;;;;;4.35;2.30;;;;;;;;;;6068044;23;20171;-90
2021/08/09 22:54:47;;;;;;;6.75;2.30;;;;;;;;;;6070498;23;20163;-92
2021/08/09 22:57:53;;;;;;;7.78;2.50;;;;;;;;;;6068884;23;20192;-91
2021/08/09 23:00:58;;;;;;;5.68;2.63;;;;;;;;;;6069172;23;20180;-91
2021/08/09 23:04:04;;;;;;;4.93;2.78;;;;;;;;;;6051611;23;20167;-92
2021/08/09 23:07:09;;;;;;;7.75;2.50;;;;;;;;;;6069010;23;20188;-91
2021/08/09 23:10:14;;;;;;;7.00;2.33;;;;;;;;;;6070570;23;20179;-92
2021/08/09 23:13:21;;;;;;;4.00;2.42;;;;;;;;;;6070672;23;20172;-92
2021/08/09 23:16:26;;;;;;;10.82;2.53;;;;;;;;;;6071279;23;20171;-91
2021/08/09 23:19:32;;;;;;;9.10;2.50;;;;;;;;;;6068392;23;20312;-90
2021/08/09 23:22:37;;;;;;;8.05;2.40;;;;;;;;;;6068749;23;20166;-91
2021/08/09 23:25:42;;;;;;;5.72;2.28;;;;;;;;;;6069951;23;20190;-91
2021/08/09 23:28:49;;;;;;;4.78;2.10;;;;;;;;;;6068310;23;20174;-92
2021/08/09 23:31:54;;;;;;;12.63;2.65;;;;;;;;;;6069661;23;20172;-91
2021/08/09 23:34:59;;;;;;;6.90;2.15;;;;;;;;;;6067390;23;20179;-92
2021/08/09 23:38:05;;;;;;;8.82;2.88;;;;;;;;;;6066879;23;20228;-90
2021/08/09 23:41:12;;;;;;;5.40;2.30;;;;;;;;;;6066592;23;20175;-92
2021/08/09 23:44:20;;;;;;;5.30;2.17;;;;;;;;;;6049316;23;20171;-90
2021/08/09 23:47:25;;;;;;;4.60;2.47;;;;;;;;;;6066066;23;20198;-92
2021/08/09 23:50:30;;;;;;;7.32;2.30;;;;;;;;;;6065939;23;20166;-91
2021/08/09 23:53:34;;;;;;;3.42;2.10;;;;;;;;;;6065342;23;20295;-89
2021/08/09 23:56:39;;;;;;;5.47;2.20;;;;;;;;;;6050578;23;20192;-92
2021/08/09 23:59:46;;;;;;;5.05;2.00;;;;;;;;;;6068133;23;20195;-91
